createdAt,value
2023-02-17T00:00:39.405Z,13.90
2023-02-17T00:03:06.081Z,13.90
2023-02-17T00:05:32.827Z,13.90
2023-02-17T00:07:59.555Z,13.90
2023-02-17T00:10:26.426Z,13.90
2023-02-17T00:12:53.043Z,13.90
2023-02-17T00:15:19.803Z,13.90
2023-02-17T00:17:46.539Z,13.90
2023-02-17T00:20:13.195Z,13.90
2023-02-17T00:22:39.887Z,13.90
2023-02-17T00:25:06.991Z,13.90
2023-02-17T00:27:34.164Z,13.90
2023-02-17T00:30:00.877Z,13.90
2023-02-17T00:32:27.589Z,13.80
2023-02-17T00:34:56.248Z,13.80
2023-02-17T00:37:22.913Z,13.80
2023-02-17T00:39:49.666Z,13.80
2023-02-17T00:42:16.427Z,13.80
2023-02-17T00:44:43.148Z,13.80
2023-02-17T00:47:09.824Z,13.80
2023-02-17T00:49:36.519Z,13.80
2023-02-17T00:52:03.291Z,13.70
2023-02-17T00:54:30.218Z,13.70
2023-02-17T00:56:56.941Z,13.80
2023-02-17T00:59:23.688Z,13.80
2023-02-17T01:01:50.484Z,13.80
2023-02-17T01:04:17.281Z,13.70
2023-02-17T01:06:44.050Z,13.70
2023-02-17T01:09:14.056Z,13.70
2023-02-17T01:11:41.708Z,13.80
2023-02-17T01:14:08.453Z,13.80
2023-02-17T01:16:39.942Z,13.80
2023-02-17T01:19:09.426Z,13.80
2023-02-17T01:21:36.477Z,13.80
2023-02-17T01:24:06.454Z,13.90
2023-02-17T01:26:35.355Z,13.90
2023-02-17T01:29:03.237Z,13.80
2023-02-17T01:31:30.444Z,13.90
2023-02-17T01:33:59.634Z,13.80
2023-02-17T01:36:27.084Z,13.80
2023-02-17T01:38:53.811Z,13.80
2023-02-17T01:41:22.901Z,13.80
2023-02-17T01:44:04.707Z,13.80
2023-02-17T01:46:36.314Z,13.80
2023-02-17T01:49:23.325Z,13.80
2023-02-17T01:52:04.723Z,13.80
2023-02-17T01:54:39.197Z,13.70
2023-02-17T01:57:06.075Z,13.70
2023-02-17T01:59:33.108Z,13.70
2023-02-17T02:02:04.972Z,13.70
2023-02-17T02:04:36.161Z,13.70
2023-02-17T02:07:06.138Z,13.70
2023-02-17T02:09:38.432Z,13.60
2023-02-17T02:12:22.548Z,13.60
2023-02-17T02:14:50.633Z,13.60
2023-02-17T02:17:34.960Z,13.60
2023-02-17T02:20:15.550Z,13.60
2023-02-17T02:23:10.012Z,13.60
2023-02-17T02:26:14.197Z,13.60
2023-02-17T02:28:43.753Z,13.50
2023-02-17T02:31:29.722Z,13.50
2023-02-17T02:34:10.231Z,13.50
2023-02-17T02:36:56.433Z,13.50
2023-02-17T02:39:27.956Z,13.60
2023-02-17T02:42:03.880Z,13.50
2023-02-17T02:44:30.841Z,13.50
2023-02-17T02:47:26.539Z,13.50
2023-02-17T02:49:53.855Z,13.50
2023-02-17T02:52:36.120Z,13.50
2023-02-17T02:55:19.480Z,13.50
2023-02-17T02:58:07.670Z,13.50
2023-02-17T03:01:02.330Z,13.50
2023-02-17T03:03:33.542Z,13.40
2023-02-17T03:06:11.771Z,13.40
2023-02-17T03:08:46.418Z,13.40
2023-02-17T03:11:13.536Z,13.40
2023-02-17T03:13:41.077Z,13.30
2023-02-17T03:16:08.912Z,13.40
2023-02-17T03:18:36.246Z,13.30
2023-02-17T03:21:10.802Z,13.40
2023-02-17T03:23:37.515Z,13.30
2023-02-17T03:26:04.655Z,13.30
2023-02-17T03:28:31.639Z,13.30
2023-02-17T03:30:58.415Z,13.20
2023-02-17T03:33:25.127Z,13.20
2023-02-17T03:35:51.834Z,13.20
2023-02-17T03:38:18.484Z,13.20
2023-02-17T03:40:45.272Z,13.20
2023-02-17T03:43:12.018Z,13.20
2023-02-17T03:45:39.717Z,13.30
2023-02-17T03:48:06.486Z,13.30
2023-02-17T03:50:33.231Z,13.40
2023-02-17T03:52:59.887Z,13.40
2023-02-17T03:55:26.644Z,13.50
2023-02-17T03:57:53.368Z,13.50
2023-02-17T04:00:20.436Z,13.50
2023-02-17T04:02:47.237Z,13.50
2023-02-17T04:05:13.908Z,13.40
2023-02-17T04:07:40.635Z,13.40
2023-02-17T04:10:09.532Z,13.40
2023-02-17T04:12:36.850Z,13.40
2023-02-17T04:15:03.717Z,13.40
2023-02-17T04:17:30.406Z,13.40
2023-02-17T04:19:57.222Z,13.50
2023-02-17T04:22:23.906Z,13.50
2023-02-17T04:24:50.607Z,13.50
2023-02-17T04:27:17.360Z,13.50
2023-02-17T04:29:44.011Z,13.50
2023-02-17T04:32:10.703Z,13.60
2023-02-17T04:34:37.523Z,13.50
2023-02-17T04:37:04.268Z,13.50
2023-02-17T04:39:30.904Z,13.50
2023-02-17T04:41:57.596Z,13.50
2023-02-17T04:44:24.261Z,13.50
2023-02-17T04:46:51.009Z,13.50
2023-02-17T04:49:17.708Z,13.60
2023-02-17T04:51:44.372Z,13.60
2023-02-17T04:54:11.165Z,13.60
2023-02-17T04:56:37.819Z,13.60
2023-02-17T04:59:04.512Z,13.60
2023-02-17T05:01:31.205Z,13.70
2023-02-17T05:03:57.866Z,13.70
2023-02-17T05:06:25.559Z,13.70
2023-02-17T05:08:53.734Z,13.70
2023-02-17T05:11:20.475Z,13.70
2023-02-17T05:13:47.144Z,13.70
2023-02-17T05:16:13.906Z,13.60
2023-02-17T05:18:40.587Z,13.60
2023-02-17T05:21:07.310Z,13.60
2023-02-17T05:23:34.095Z,13.50
2023-02-17T05:26:01.816Z,13.50
2023-02-17T05:28:28.565Z,13.60
2023-02-17T05:30:55.235Z,13.60
2023-02-17T05:33:21.968Z,13.60
2023-02-17T05:35:48.718Z,13.60
2023-02-17T05:38:15.491Z,13.70
2023-02-17T05:40:42.219Z,13.70
2023-02-17T05:43:08.884Z,13.70
2023-02-17T05:45:35.942Z,13.70
2023-02-17T05:48:02.739Z,13.70
2023-02-17T05:50:29.503Z,13.70
2023-02-17T05:52:57.260Z,13.70
2023-02-17T05:55:24.054Z,13.70
2023-02-17T05:57:50.734Z,13.70
2023-02-17T06:00:17.576Z,13.60
2023-02-17T06:02:44.293Z,13.50
2023-02-17T06:05:11.321Z,13.50
2023-02-17T06:07:38.095Z,13.50
2023-02-17T06:10:05.439Z,13.50
2023-02-17T06:12:32.078Z,13.50
2023-02-17T06:14:58.828Z,13.40
2023-02-17T06:17:25.627Z,13.40
2023-02-17T06:19:52.276Z,13.30
2023-02-17T06:22:19.119Z,13.20
2023-02-17T06:24:45.908Z,13.20
2023-02-17T06:27:12.642Z,13.20
2023-02-17T06:29:39.620Z,13.10
2023-02-17T06:32:06.422Z,13.10
2023-02-17T06:34:33.142Z,13.10
2023-02-17T06:36:59.972Z,13.10
2023-02-17T06:39:26.734Z,13.10
2023-02-17T06:41:53.457Z,13.00
2023-02-17T06:44:20.099Z,13.00
2023-02-17T06:46:46.985Z,13.00
2023-02-17T06:49:14.658Z,12.90
2023-02-17T06:51:41.328Z,12.90
2023-02-17T06:54:08.273Z,12.90
2023-02-17T06:56:36.389Z,12.90
2023-02-17T06:59:04.029Z,12.90
2023-02-17T07:01:30.986Z,13.00
2023-02-17T07:03:57.710Z,13.00
2023-02-17T07:06:25.513Z,13.00
2023-02-17T07:08:52.230Z,13.00
2023-02-17T07:11:19.324Z,13.00
2023-02-17T07:13:47.424Z,13.00
2023-02-17T07:16:15.073Z,13.00
2023-02-17T07:18:42.128Z,13.10
2023-02-17T07:21:09.871Z,13.10
2023-02-17T07:23:38.039Z,13.10
2023-02-17T07:26:08.378Z,13.10
2023-02-17T07:28:37.706Z,13.20
2023-02-17T07:31:16.285Z,13.20
2023-02-17T07:33:43.744Z,13.20
2023-02-17T07:36:13.341Z,13.20
2023-02-17T07:38:40.696Z,13.30
2023-02-17T07:41:16.020Z,13.30
2023-02-17T07:43:43.875Z,13.30
2023-02-17T07:46:11.840Z,13.30
2023-02-17T07:48:38.943Z,13.30
2023-02-17T07:51:11.212Z,13.30
2023-02-17T07:53:38.504Z,13.30
2023-02-17T07:56:12.449Z,13.30
2023-02-17T07:58:41.990Z,13.30
2023-02-17T08:01:10.963Z,13.30
2023-02-17T08:03:39.152Z,13.30
2023-02-17T08:06:10.744Z,13.30
2023-02-17T08:08:55.917Z,13.30
2023-02-17T08:11:42.916Z,13.30
2023-02-17T08:14:12.848Z,13.30
2023-02-17T08:16:41.706Z,13.30
2023-02-17T08:19:08.558Z,13.30
2023-02-17T08:21:35.483Z,13.30
2023-02-17T08:24:02.229Z,13.40
2023-02-17T08:26:29.126Z,13.40
2023-02-17T08:28:56.410Z,13.40
2023-02-17T08:31:26.184Z,13.40
2023-02-17T08:33:53.239Z,13.40
2023-02-17T08:36:22.264Z,13.40
2023-02-17T08:38:51.221Z,13.50
2023-02-17T08:41:31.110Z,13.50
2023-02-17T08:43:59.377Z,13.50
2023-02-17T08:46:26.499Z,13.50
2023-02-17T08:48:54.158Z,13.40
2023-02-17T08:51:23.754Z,13.40
2023-02-17T08:53:51.997Z,13.40
2023-02-17T08:56:18.996Z,13.40
2023-02-17T08:58:45.802Z,13.30
2023-02-17T09:01:12.533Z,13.40
2023-02-17T09:03:41.683Z,13.40
2023-02-17T09:06:09.402Z,13.30
2023-02-17T09:08:36.910Z,13.40
2023-02-17T09:11:03.679Z,13.40
2023-02-17T09:13:30.424Z,13.40
2023-02-17T09:15:58.063Z,13.40
2023-02-17T09:18:25.214Z,13.40
2023-02-17T09:20:52.332Z,13.30
2023-02-17T09:23:19.482Z,13.30
2023-02-17T09:25:46.165Z,13.30
2023-02-17T09:28:14.061Z,13.40
2023-02-17T09:30:41.069Z,13.40
2023-02-17T09:33:07.800Z,13.40
2023-02-17T09:35:36.457Z,13.40
2023-02-17T09:38:03.356Z,13.40
2023-02-17T09:40:45.807Z,13.40
2023-02-17T09:43:16.013Z,13.50
2023-02-17T09:45:47.496Z,13.50
2023-02-17T09:48:18.823Z,13.50
2023-02-17T09:51:12.551Z,13.50
2023-02-17T09:53:51.483Z,13.40
2023-02-17T09:56:28.507Z,13.40
2023-02-17T09:59:00.488Z,13.50
2023-02-17T10:01:32.401Z,13.50
2023-02-17T10:04:04.939Z,13.50
2023-02-17T10:06:37.187Z,13.50
2023-02-17T10:09:22.831Z,13.60
2023-02-17T10:12:06.036Z,13.60
2023-02-17T10:14:59.472Z,13.60
2023-02-17T10:17:33.980Z,13.60
2023-02-17T10:20:18.140Z,13.60
2023-02-17T10:22:49.937Z,13.60
2023-02-17T10:25:20.613Z,13.60
2023-02-17T10:27:55.905Z,13.60
2023-02-17T10:30:39.018Z,13.60
2023-02-17T10:33:23.874Z,13.60
2023-02-17T10:36:06.243Z,13.60
2023-02-17T10:38:54.157Z,13.60
2023-02-17T10:41:32.656Z,13.60
2023-02-17T10:44:01.069Z,13.50
2023-02-17T10:46:30.553Z,13.50
2023-02-17T10:48:59.298Z,13.50
2023-02-17T10:51:26.959Z,13.50
2023-02-17T10:54:05.839Z,13.50
2023-02-17T10:56:41.777Z,13.50
2023-02-17T10:59:34.278Z,13.60
2023-02-17T11:02:20.392Z,13.60
2023-02-17T11:04:54.712Z,13.70
2023-02-17T11:07:32.597Z,13.70
2023-02-17T11:10:02.091Z,13.70
2023-02-17T11:12:40.384Z,13.70
2023-02-17T11:15:18.778Z,13.70
2023-02-17T11:17:46.555Z,13.70
2023-02-17T11:20:16.139Z,13.80
2023-02-17T11:22:48.934Z,13.80
2023-02-17T11:25:31.906Z,13.80
2023-02-17T11:28:05.511Z,13.70
2023-02-17T11:30:33.592Z,13.80
2023-02-17T11:33:16.307Z,13.80
2023-02-17T11:35:56.271Z,13.80
2023-02-17T11:38:42.375Z,13.80
2023-02-17T11:41:11.088Z,13.80
2023-02-17T11:43:39.002Z,13.80
2023-02-17T11:46:22.852Z,13.70
2023-02-17T11:49:28.000Z,13.70
2023-02-17T11:52:25.676Z,13.70
2023-02-17T11:55:15.750Z,13.70
2023-02-17T11:58:11.488Z,13.80
2023-02-17T12:00:44.762Z,13.70
2023-02-17T12:03:46.715Z,13.70
2023-02-17T12:06:38.223Z,13.80
2023-02-17T12:09:15.250Z,13.80
2023-02-17T12:11:51.070Z,13.90
2023-02-17T12:17:12.407Z,13.90
2023-02-17T12:20:08.451Z,14.10
2023-02-17T12:23:00.512Z,14.10
2023-02-17T12:25:33.050Z,14.00
2023-02-17T12:28:08.811Z,14.00
2023-02-17T12:31:10.874Z,14.00
2023-02-17T13:45:23.020Z,13.90
2023-02-17T13:47:52.085Z,14.30
2023-02-17T13:50:46.978Z,14.30
2023-02-17T13:53:38.481Z,14.30
2023-02-17T13:56:29.598Z,14.20
2023-02-17T13:59:10.717Z,14.20
2023-02-17T14:01:42.665Z,14.30
2023-02-17T14:04:23.300Z,14.30
2023-02-17T14:06:50.818Z,14.30
2023-02-17T14:09:22.752Z,14.30
2023-02-17T14:11:50.755Z,14.30
2023-02-17T14:14:18.041Z,14.30
2023-02-17T14:16:55.455Z,14.30
2023-02-17T14:19:22.733Z,14.40
2023-02-17T14:21:59.589Z,14.30
2023-02-17T14:24:31.009Z,14.30
2023-02-17T14:27:03.930Z,14.30
2023-02-17T14:29:40.718Z,14.40
2023-02-17T14:32:08.080Z,14.40
2023-02-17T14:34:36.358Z,14.40
2023-02-17T14:37:17.197Z,14.40
2023-02-17T14:39:44.943Z,14.40
2023-02-17T14:42:11.665Z,14.40
2023-02-17T14:44:39.327Z,14.40
2023-02-17T14:47:06.082Z,14.50
2023-02-17T14:49:32.758Z,14.50
2023-02-17T14:51:59.547Z,14.50
2023-02-17T14:54:30.385Z,14.50
2023-02-17T14:57:07.343Z,14.50
2023-02-17T14:59:34.301Z,14.50
2023-02-17T15:02:01.139Z,14.50
2023-02-17T15:04:28.022Z,14.50
2023-02-17T15:06:54.850Z,14.50
2023-02-17T15:09:29.940Z,14.50
2023-02-17T15:11:57.994Z,14.60
2023-02-17T15:14:25.802Z,14.60
2023-02-17T15:16:52.538Z,14.50
2023-02-17T15:19:19.409Z,14.60
2023-02-17T15:21:51.166Z,14.60
2023-02-17T15:24:22.868Z,14.50
2023-02-17T15:26:49.601Z,14.60
2023-02-17T15:29:24.522Z,14.60
2023-02-17T15:34:21.618Z,14.70
2023-02-17T15:36:48.882Z,14.60
2023-02-17T15:39:18.482Z,14.60
2023-02-17T15:41:47.395Z,14.70
2023-02-17T15:44:21.481Z,14.70
2023-02-17T15:46:51.428Z,14.70
2023-02-17T15:49:18.622Z,14.70
2023-02-17T15:51:45.343Z,14.70
2023-02-17T15:54:13.000Z,14.70
2023-02-17T15:56:47.677Z,14.70
2023-02-17T15:59:26.534Z,14.70
2023-02-17T16:01:56.087Z,14.70
2023-02-17T16:06:50.163Z,14.70
2023-02-17T16:09:16.902Z,14.80
2023-02-17T16:11:49.477Z,14.80
2023-02-17T16:14:37.940Z,14.80
2023-02-17T16:17:05.062Z,14.80
2023-02-17T16:19:32.479Z,14.80
2023-02-17T16:21:59.136Z,14.80
2023-02-17T16:24:25.836Z,14.80
2023-02-17T16:26:52.614Z,14.70
2023-02-17T16:29:22.394Z,14.70
2023-02-17T16:31:49.566Z,14.70
2023-02-17T16:34:21.969Z,14.70
2023-02-17T16:36:57.276Z,14.80
2023-02-17T16:39:24.023Z,14.80
2023-02-17T16:41:50.740Z,14.80
2023-02-17T16:44:20.187Z,14.80
2023-02-17T16:46:49.575Z,14.90
2023-02-17T16:49:32.560Z,14.90
2023-02-17T16:52:00.770Z,14.80
2023-02-17T16:54:27.520Z,14.80
2023-02-17T16:56:54.962Z,14.70
2023-02-17T16:59:23.606Z,14.70
2023-02-17T17:01:53.063Z,14.60
2023-02-17T17:04:21.878Z,14.60
2023-02-17T17:06:51.083Z,14.50
2023-02-17T17:09:21.116Z,14.50
2023-02-17T17:11:47.828Z,14.60
2023-02-17T17:14:14.980Z,14.60
2023-02-17T17:16:48.988Z,14.60
2023-02-17T17:19:15.664Z,14.50
2023-02-17T17:21:42.450Z,14.50
2023-02-17T17:24:09.800Z,14.40
2023-02-17T17:26:40.087Z,14.30
2023-02-17T17:29:08.430Z,14.30
2023-02-17T17:31:35.276Z,14.20
2023-02-17T17:34:01.962Z,14.20
2023-02-17T17:36:38.519Z,14.10
2023-02-17T17:39:07.165Z,14.10
2023-02-17T17:41:34.050Z,14.10
2023-02-17T17:44:00.800Z,14.10
2023-02-17T17:46:29.886Z,14.10
2023-02-17T17:49:00.705Z,14.10
2023-02-17T17:51:32.531Z,14.10
2023-02-17T17:53:59.569Z,14.10
2023-02-17T17:56:32.325Z,14.20
2023-02-17T17:59:01.351Z,14.20
2023-02-17T18:01:28.364Z,14.20
2023-02-17T18:03:55.308Z,14.20
2023-02-17T18:06:26.299Z,14.20
2023-02-17T18:08:56.152Z,14.20
2023-02-17T18:11:24.968Z,14.20
2023-02-17T18:13:54.908Z,14.20
2023-02-17T18:16:26.225Z,14.20
2023-02-17T18:18:53.380Z,14.10
2023-02-17T18:21:20.124Z,14.00
2023-02-17T18:23:46.885Z,14.10
2023-02-17T18:26:13.883Z,14.00
2023-02-17T18:28:42.328Z,14.00
2023-02-17T18:31:11.130Z,14.00
2023-02-17T18:33:38.503Z,14.00
2023-02-17T18:36:16.764Z,14.00
2023-02-17T18:38:44.401Z,14.10
2023-02-17T18:41:37.389Z,14.20
2023-02-17T18:44:05.233Z,14.30
2023-02-17T18:46:37.700Z,14.40
2023-02-17T18:49:04.586Z,14.40
2023-02-17T18:51:31.588Z,14.50
2023-02-17T18:53:59.709Z,14.50
2023-02-17T18:56:29.085Z,14.60
2023-02-17T18:58:56.622Z,14.60
2023-02-17T19:01:32.688Z,14.60
2023-02-17T19:03:59.687Z,14.60
2023-02-17T19:06:29.344Z,14.70
2023-02-17T19:08:56.435Z,14.80
2023-02-17T19:11:24.475Z,14.80
2023-02-17T19:13:51.628Z,14.80
2023-02-17T19:16:21.599Z,14.80
2023-02-17T19:18:48.901Z,14.80
2023-02-17T19:21:15.903Z,14.80
2023-02-17T19:23:42.900Z,14.70
2023-02-17T19:26:11.371Z,14.70
2023-02-17T19:28:39.152Z,14.70
2023-02-17T19:31:11.108Z,14.70
2023-02-17T19:33:37.943Z,14.70
2023-02-17T19:36:17.162Z,14.70
2023-02-17T19:38:44.557Z,14.70
2023-02-17T19:41:16.254Z,14.70
2023-02-17T19:43:43.761Z,14.70
2023-02-17T19:46:13.510Z,14.70
2023-02-17T19:48:41.056Z,14.70
2023-02-17T19:51:09.404Z,14.70
2023-02-17T19:53:36.433Z,14.70
2023-02-17T19:56:26.243Z,14.70
2023-02-17T19:58:53.315Z,14.70
2023-02-17T20:01:38.076Z,14.70
2023-02-17T20:04:06.056Z,14.70
2023-02-17T20:06:37.758Z,14.70
2023-02-17T20:09:07.361Z,14.60
2023-02-17T20:11:34.441Z,14.60
2023-02-17T20:14:02.910Z,14.60
2023-02-17T20:16:30.549Z,14.60
2023-02-17T20:18:57.389Z,14.60
2023-02-17T20:21:29.486Z,14.60
2023-02-17T20:23:57.588Z,14.60
2023-02-17T20:26:27.436Z,14.60
2023-02-17T20:28:54.940Z,14.60
2023-02-17T20:31:22.437Z,14.60
2023-02-17T20:33:49.803Z,14.60
2023-02-17T20:36:17.231Z,14.60
2023-02-17T20:38:44.925Z,14.60
2023-02-17T20:41:16.117Z,14.60
2023-02-17T20:43:43.162Z,14.60
2023-02-17T20:46:25.810Z,14.60
2023-02-17T20:48:53.590Z,14.60
2023-02-17T20:51:20.984Z,14.60
2023-02-17T20:53:48.457Z,14.60
2023-02-17T20:56:22.843Z,14.60
2023-02-17T20:58:50.920Z,14.60
2023-02-17T21:01:18.353Z,14.60
2023-02-17T21:03:46.106Z,14.50
2023-02-17T21:06:26.717Z,14.50
2023-02-17T21:08:59.311Z,14.50
2023-02-17T21:11:26.531Z,14.50
2023-02-17T21:13:53.284Z,14.50
2023-02-17T21:16:24.605Z,14.50
2023-02-17T21:18:51.899Z,14.50
2023-02-17T21:21:18.892Z,14.50
2023-02-17T21:23:45.918Z,14.60
2023-02-17T21:26:13.659Z,14.60
2023-02-17T21:28:40.710Z,14.60
2023-02-17T21:31:07.750Z,14.60
2023-02-17T21:33:35.552Z,14.60
2023-02-17T21:36:05.818Z,14.60
2023-02-17T21:38:32.657Z,14.60
2023-02-17T21:41:05.868Z,14.60
2023-02-17T21:43:51.144Z,14.60
2023-02-17T21:46:18.904Z,14.60
2023-02-17T21:48:45.592Z,14.70
2023-02-17T21:51:12.728Z,14.70
2023-02-17T21:53:39.919Z,14.70
2023-02-17T21:56:07.299Z,14.70
2023-02-17T21:58:34.727Z,14.60
2023-02-17T22:01:01.956Z,14.70
2023-02-17T22:03:28.694Z,14.70
2023-02-17T22:05:55.706Z,14.70
2023-02-17T22:08:23.847Z,14.70
2023-02-17T22:10:50.944Z,14.70
2023-02-17T22:13:17.771Z,14.70
2023-02-17T22:15:44.534Z,14.70
2023-02-17T22:18:11.245Z,14.70
2023-02-17T22:20:38.012Z,14.80
2023-02-17T22:23:04.728Z,14.80
2023-02-17T22:25:31.629Z,14.80
2023-02-17T22:27:58.344Z,14.80
2023-02-17T22:30:25.111Z,14.80
2023-02-17T22:32:52.818Z,14.80
2023-02-17T22:35:20.958Z,14.80
2023-02-17T22:37:47.727Z,14.70
2023-02-17T22:40:14.622Z,14.80
2023-02-17T22:42:41.253Z,14.80
2023-02-17T22:45:08.177Z,14.80
2023-02-17T22:47:34.911Z,14.80
2023-02-17T22:50:01.621Z,14.80
2023-02-17T22:52:28.290Z,14.80
2023-02-17T22:54:55.160Z,14.80
2023-02-17T22:57:21.898Z,14.80
2023-02-17T22:59:48.627Z,14.80
2023-02-17T23:02:15.382Z,14.80
2023-02-17T23:04:42.146Z,14.80
2023-02-17T23:07:08.984Z,14.80
2023-02-17T23:09:35.705Z,14.80
2023-02-17T23:12:02.393Z,14.80
2023-02-17T23:14:35.360Z,14.80
2023-02-17T23:17:09.351Z,14.80
2023-02-17T23:19:36.843Z,14.80
2023-02-17T23:22:07.750Z,14.80
2023-02-17T23:24:34.438Z,14.80
2023-02-17T23:27:01.922Z,14.80
2023-02-17T23:29:30.692Z,14.80
2023-02-17T23:31:57.602Z,14.70
2023-02-17T23:34:24.446Z,14.70
2023-02-17T23:36:51.203Z,14.70
2023-02-17T23:39:19.060Z,14.70
2023-02-17T23:41:45.910Z,14.70
2023-02-17T23:44:14.579Z,14.70
2023-02-17T23:46:42.173Z,14.70
2023-02-17T23:49:10.388Z,14.60
2023-02-17T23:51:37.102Z,14.60
2023-02-17T23:54:03.751Z,14.60
2023-02-17T23:56:33.210Z,14.60
2023-02-17T23:59:01.205Z,14.50
